Brookhaven Weather

Current Time: 04:12 Zulu

HWV METARs

Local Time Temperature Dew Point Wind Direction Wind Speed Wind Gust Sky Vis.
12/3/2020 3:56:00 AM 3.9° c -3.9° c 250° 8 kt - CLR 10.0 sm
12/3/2020 2:56:00 AM 4.4° c -3.3° c 230° 7 kt - CLR 10.0 sm
12/3/2020 1:56:00 AM 5.0° c -2.8° c 240° 9 kt - CLR 10.0 sm
12/3/2020 12:56:00 AM 5.6° c -2.8° c 240° 6 kt - CLR 10.0 sm

ISP TAF:

KISP 030237Z 0303/0324 26007KT P6SM SKC 
FM031400 24013KT P6SM FEW250 
FM032300 23009KT P6SM SCT150 BKN250
Weather data provided by aviationweather.gov. Pilots must verify weather before flying.